Portada
METAR-TAF:

METAR-TAF

Aeroports :

Denpasar, Indonèsia

latitud: 08-44-53S, longitud: 115-10-03E, altitud: 4 m

Observació

L'informe es va fer fa 20 minuts, a les 10:30 UTC
Vent 10 kt del Sud-Est
Temperatura 28°C
Humitat 79%
Pressió 1009 hPa
Visibilitat 10 km o més
Escasses núvols a una alçada de 1600 ft

METAR: WADD 231030Z 14010KT 9999 FEW016 28/24 Q1009 NOSIG

Hora: 17:50 (10:50 UTC)

Pronòstic

L'informe es va fer fa 5 hores i 50 minuts, a les 05:00 UTC
Pronòstic vàlid del 23 a les 06 UTC al 24 a les 06 UTC
Vent 10 kt del Est/Sud-Est
Visibilitat 10 km o més
Núvols disperses a una alçada de 1600 ft

TAF: WADD 230500Z 2306/2406 12010KT 9999 SCT016

Observacions i pronòstics meteorològics de més de 4000 aeroports (METAR i TAF).

Les estacions disponibles són els punts grocs i vermells al mapa.

Posi el ratolí al punt desitjat per veure el nom de l'estació.

Feu clic per veure les observacions i els pronòstics meteorològics.

Per canviar el mapa: feu clic els botons verds amb una creu de color negre per apropar; al botó verd amb un guió per allunyar la imatge; o en les fletxes verdes per a mapes adjacents.


METAR-TAF: